sensor_id;sensor_type;location;lat;lon;timestamp;pressure;altitude;pressure_sealevel;temperature;humidity
56414;BME280;42318;48.452;19.526;2024-03-07T00:02:21;98228.53;;;21.65;54.23
56414;BME280;42318;48.452;19.526;2024-03-07T00:05:24;98235.06;;;21.64;54.11
56414;BME280;42318;48.452;19.526;2024-03-07T00:08:25;98226.88;;;21.64;54.59
56414;BME280;42318;48.452;19.526;2024-03-07T00:11:25;98224.97;;;21.59;54.28
56414;BME280;42318;48.452;19.526;2024-03-07T00:14:26;98230.44;;;21.64;54.56
56414;BME280;42318;48.452;19.526;2024-03-07T00:17:27;98227.69;;;21.64;54.60
56414;BME280;42318;48.452;19.526;2024-03-07T00:20:28;98231.25;;;21.65;54.35
56414;BME280;42318;48.452;19.526;2024-03-07T00:23:28;98232.88;;;21.66;54.23
56414;BME280;42318;48.452;19.526;2024-03-07T00:26:29;98232.88;;;21.66;54.12
56414;BME280;42318;48.452;19.526;2024-03-07T00:29:30;98239.16;;;21.67;54.16
56414;BME280;42318;48.452;19.526;2024-03-07T00:32:31;98232.06;;;21.66;54.17
56414;BME280;42318;48.452;19.526;2024-03-07T00:35:35;98222.78;;;21.67;54.47
56414;BME280;42318;48.452;19.526;2024-03-07T00:38:36;98220.34;;;21.60;54.46
56414;BME280;42318;48.452;19.526;2024-03-07T00:41:38;98221.72;;;21.68;54.50
56414;BME280;42318;48.452;19.526;2024-03-07T00:44:39;98232.06;;;21.66;54.11
56414;BME280;42318;48.452;19.526;2024-03-07T00:47:39;98210.25;;;21.60;54.21
56414;BME280;42318;48.452;19.526;2024-03-07T00:50:40;98223.34;;;21.63;54.22
56414;BME280;42318;48.452;19.526;2024-03-07T00:53:42;98225.53;;;21.67;54.25
56414;BME280;42318;48.452;19.526;2024-03-07T00:56:43;98223.88;;;21.66;54.31
56414;BME280;42318;48.452;19.526;2024-03-07T00:59:44;98225.53;;;21.67;54.52
56414;BME280;42318;48.452;19.526;2024-03-07T01:02:46;98231.56;;;21.69;54.57
56414;BME280;42318;48.452;19.526;2024-03-07T01:05:47;98223.63;;;21.67;54.53
56414;BME280;42318;48.452;19.526;2024-03-07T01:08:47;98233.19;;;21.70;54.38
56414;BME280;42318;48.452;19.526;2024-03-07T01:11:48;98228.81;;;21.69;54.25
56414;BME280;42318;48.452;19.526;2024-03-07T01:14:50;98235.09;;;21.69;54.41
56414;BME280;42318;48.452;19.526;2024-03-07T01:17:51;98226.63;;;21.66;54.11
56414;BME280;42318;48.452;19.526;2024-03-07T01:20:52;98227.72;;;21.70;54.50
56414;BME280;42318;48.452;19.526;2024-03-07T01:23:52;98221.47;;;21.69;54.46
56414;BME280;42318;48.452;19.526;2024-03-07T01:26:54;98225.00;;;21.70;54.41
56414;BME280;42318;48.452;19.526;2024-03-07T01:29:54;98224.72;;;21.71;54.13
56414;BME280;42318;48.452;19.526;2024-03-07T01:32:55;98225.56;;;21.72;54.13
56414;BME280;42318;48.452;19.526;2024-03-07T01:35:56;98218.72;;;21.64;54.64
56414;BME280;42318;48.452;19.526;2024-03-07T01:38:56;98214.88;;;21.65;54.11
56414;BME280;42318;48.452;19.526;2024-03-07T01:41:57;98232.91;;;21.71;54.21
56414;BME280;42318;48.452;19.526;2024-03-07T01:44:58;98224.72;;;21.71;54.15
56414;BME280;42318;48.452;19.526;2024-03-07T01:47:59;98226.63;;;21.71;54.44
56414;BME280;42318;48.452;19.526;2024-03-07T01:51:00;98218.44;;;21.66;54.52
56414;BME280;42318;48.452;19.526;2024-03-07T01:54:05;98225.81;;;21.70;54.61
56414;BME280;42318;48.452;19.526;2024-03-07T01:57:09;98208.63;;;21.64;54.27
56414;BME280;42318;48.452;19.526;2024-03-07T02:00:10;98211.38;;;21.70;54.19
56414;BME280;42318;48.452;19.526;2024-03-07T02:03:11;98219.28;;;21.71;54.55
56414;BME280;42318;48.452;19.526;2024-03-07T02:06:12;98216.56;;;21.71;54.21
56414;BME280;42318;48.452;19.526;2024-03-07T02:09:12;98224.72;;;21.71;54.32
56414;BME280;42318;48.452;19.526;2024-03-07T02:12:14;98220.38;;;21.70;54.35
56414;BME280;42318;48.452;19.526;2024-03-07T02:15:15;98226.63;;;21.71;54.37
56414;BME280;42318;48.452;19.526;2024-03-07T02:18:17;98225.56;;;21.72;54.34
56414;BME280;42318;48.452;19.526;2024-03-07T02:21:17;98223.09;;;21.70;54.15
56414;BME280;42318;48.452;19.526;2024-03-07T02:24:18;98217.34;;;21.67;54.27
56414;BME280;42318;48.452;19.526;2024-03-07T02:27:19;98221.72;;;21.73;54.06
56414;BME280;42318;48.452;19.526;2024-03-07T02:30:19;98219.28;;;21.71;54.22
56414;BME280;42318;48.452;19.526;2024-03-07T02:33:20;98225.56;;;21.72;54.41
56414;BME280;42318;48.452;19.526;2024-03-07T02:36:20;98209.16;;;21.61;54.30
56414;BME280;42318;48.452;19.526;2024-03-07T02:39:21;98221.16;;;21.66;54.38
56414;BME280;42318;48.452;19.526;2024-03-07T02:42:22;98228.00;;;21.73;54.27
56414;BME280;42318;48.452;19.526;2024-03-07T02:45:23;98231.00;;;21.72;54.35
56414;BME280;42318;48.452;19.526;2024-03-07T02:48:23;98222.28;;;21.70;54.42
56414;BME280;42318;48.452;19.526;2024-03-07T02:51:24;98236.47;;;21.72;54.46
56414;BME280;42318;48.452;19.526;2024-03-07T02:54:24;98224.69;;;21.66;54.29
56414;BME280;42318;48.452;19.526;2024-03-07T02:57:25;98232.63;;;21.73;54.13
56414;BME280;42318;48.452;19.526;2024-03-07T03:00:26;98242.72;;;21.72;54.22
56414;BME280;42318;48.452;19.526;2024-03-07T03:03:27;98234.81;;;21.71;54.51
56414;BME280;42318;48.452;19.526;2024-03-07T03:06:28;98238.38;;;21.71;54.34
56414;BME280;42318;48.452;19.526;2024-03-07T03:09:29;98229.06;;;21.67;54.26
56414;BME280;42318;48.452;19.526;2024-03-07T03:12:29;98239.19;;;21.72;53.99
56414;BME280;42318;48.452;19.526;2024-03-07T03:15:30;98230.97;;;21.67;54.05
56414;BME280;42318;48.452;19.526;2024-03-07T03:18:31;98240.53;;;21.74;53.99
56414;BME280;42318;48.452;19.526;2024-03-07T03:21:32;98244.91;;;21.70;54.12
56414;BME280;42318;48.452;19.526;2024-03-07T03:24:34;98246.00;;;21.74;54.14
56414;BME280;42318;48.452;19.526;2024-03-07T03:27:34;98244.09;;;21.75;54.50
56414;BME280;42318;48.452;19.526;2024-03-07T03:30:38;98250.63;;;21.74;53.91
56414;BME280;42318;48.452;19.526;2024-03-07T03:33:39;98247.38;;;21.72;54.34
56414;BME280;42318;48.452;19.526;2024-03-07T03:36:41;98252.81;;;21.72;54.44
56414;BME280;42318;48.452;19.526;2024-03-07T03:39:42;98252.53;;;21.73;54.40
56414;BME280;42318;48.452;19.526;2024-03-07T03:42:43;98233.69;;;21.61;54.23
56414;BME280;42318;48.452;19.526;2024-03-07T03:45:43;98256.91;;;21.74;54.42
56414;BME280;42318;48.452;19.526;2024-03-07T03:48:44;98247.38;;;21.72;54.46
56414;BME280;42318;48.452;19.526;2024-03-07T03:51:45;98249.00;;;21.73;54.22
56414;BME280;42318;48.452;19.526;2024-03-07T03:54:45;98242.47;;;21.74;54.16
56414;BME280;42318;48.452;19.526;2024-03-07T03:57:46;98243.53;;;21.73;54.08
56414;BME280;42318;48.452;19.526;2024-03-07T04:00:49;98244.09;;;21.70;54.09
56414;BME280;42318;48.452;19.526;2024-03-07T04:03:50;98257.19;;;21.73;54.15
56414;BME280;42318;48.452;19.526;2024-03-07T04:06:51;98255.28;;;21.73;54.32
56414;BME280;42318;48.452;19.526;2024-03-07T04:09:52;98256.09;;;21.74;54.12
56414;BME280;42318;48.452;19.526;2024-03-07T04:12:52;98249.00;;;21.73;53.99
56414;BME280;42318;48.452;19.526;2024-03-07T04:15:53;98256.91;;;21.74;54.33
56414;BME280;42318;48.452;19.526;2024-03-07T04:18:53;98255.28;;;21.73;54.29
56414;BME280;42318;48.452;19.526;2024-03-07T04:21:54;98255.00;;;21.70;54.07
56414;BME280;42318;48.452;19.526;2024-03-07T04:24:54;98264.53;;;21.72;54.10
56414;BME280;42318;48.452;19.526;2024-03-07T04:27:55;98255.00;;;21.70;54.29
56414;BME280;42318;48.452;19.526;2024-03-07T04:30:56;98268.63;;;21.75;53.91
56414;BME280;42318;48.452;19.526;2024-03-07T04:33:57;98267.00;;;21.74;53.86
56414;BME280;42318;48.452;19.526;2024-03-07T04:36:58;98267.00;;;21.74;54.12
56414;BME280;42318;48.452;19.526;2024-03-07T04:40:03;98264.28;;;21.74;54.27
56414;BME280;42318;48.452;19.526;2024-03-07T04:43:04;98267.81;;;21.74;53.91
56414;BME280;42318;48.452;19.526;2024-03-07T04:46:06;98257.19;;;21.73;54.32
56414;BME280;42318;48.452;19.526;2024-03-07T04:49:07;98265.91;;;21.75;54.40
56414;BME280;42318;48.452;19.526;2024-03-07T04:52:07;98268.63;;;21.75;53.95
56414;BME280;42318;48.452;19.526;2024-03-07T04:55:09;98264.28;;;21.74;54.41
56414;BME280;42318;48.452;19.526;2024-03-07T04:58:13;98267.00;;;21.74;54.31
56414;BME280;42318;48.452;19.526;2024-03-07T05:01:14;98263.72;;;21.72;54.44
56414;BME280;42318;48.452;19.526;2024-03-07T05:04:16;98275.19;;;21.74;54.21
56414;BME280;42318;48.452;19.526;2024-03-07T05:07:17;98270.53;;;21.74;54.47
56414;BME280;42318;48.452;19.526;2024-03-07T05:10:19;98283.34;;;21.74;54.19
56414;BME280;42318;48.452;19.526;2024-03-07T05:13:20;98275.19;;;21.74;54.28
56414;BME280;42318;48.452;19.526;2024-03-07T05:16:21;98269.44;;;21.70;54.41
56414;BME280;42318;48.452;19.526;2024-03-07T05:19:22;98278.72;;;21.74;54.41
56414;BME280;42318;48.452;19.526;2024-03-07T05:22:22;98288.53;;;21.75;54.38
56414;BME280;42318;48.452;19.526;2024-03-07T05:25:25;98293.19;;;21.75;54.32
56414;BME280;42318;48.452;19.526;2024-03-07T05:28:26;98290.44;;;21.75;54.33
56414;BME280;42318;48.452;19.526;2024-03-07T05:31:26;98287.72;;;21.75;54.47
56414;BME280;42318;48.452;19.526;2024-03-07T05:34:27;98289.34;;;21.76;54.26
56414;BME280;42318;48.452;19.526;2024-03-07T05:37:30;98292.09;;;21.76;54.54
56414;BME280;42318;48.452;19.526;2024-03-07T05:40:32;98286.63;;;21.76;54.53
56414;BME280;42318;48.452;19.526;2024-03-07T05:43:33;98292.09;;;21.76;54.51
56414;BME280;42318;48.452;19.526;2024-03-07T05:46:40;98298.09;;;21.78;54.28
56414;BME280;42318;48.452;19.526;2024-03-07T05:49:42;98290.44;;;21.75;54.60
56414;BME280;42318;48.452;19.526;2024-03-07T19:29:36;98582.84;;;21.08;55.00
56414;BME280;42318;48.452;19.526;2024-03-07T19:32:39;98571.13;;;21.07;55.05
56414;BME280;42318;48.452;19.526;2024-03-07T19:35:48;98567.00;;;21.05;54.77
56414;BME280;42318;48.452;19.526;2024-03-07T19:38:51;98578.72;;;21.32;54.66
56414;BME280;42318;48.452;19.526;2024-03-07T19:41:53;98582.03;;;21.39;54.77
56414;BME280;42318;48.452;19.526;2024-03-07T19:44:54;98582.88;;;21.45;54.35
56414;BME280;42318;48.452;19.526;2024-03-07T19:47:57;98594.63;;;21.50;54.23
56414;BME280;42318;48.452;19.526;2024-03-07T19:50:58;98584.84;;;21.54;54.60
56414;BME280;42318;48.452;19.526;2024-03-07T19:54:00;98585.94;;;21.58;54.23
56414;BME280;42318;48.452;19.526;2024-03-07T19:57:01;98589.78;;;21.62;53.93
56414;BME280;42318;48.452;19.526;2024-03-07T20:00:05;98586.53;;;21.66;54.22
56414;BME280;42318;48.452;19.526;2024-03-07T20:03:09;98590.09;;;21.66;54.33
56414;BME280;42318;48.452;19.526;2024-03-07T20:06:10;98588.50;;;21.70;53.79
56414;BME280;42318;48.452;19.526;2024-03-07T20:09:11;98593.69;;;21.72;53.99
56414;BME280;42318;48.452;19.526;2024-03-07T20:12:17;98580.00;;;21.67;53.97
56414;BME280;42318;48.452;19.526;2024-03-07T20:15:18;98583.06;;;21.75;54.24
56414;BME280;42318;48.452;19.526;2024-03-07T20:18:19;98577.59;;;21.70;54.09
56414;BME280;42318;48.452;19.526;2024-03-07T20:21:20;98558.13;;;21.56;53.73
56414;BME280;42318;48.452;19.526;2024-03-07T20:24:22;98587.19;;;21.78;53.71
56414;BME280;42318;48.452;19.526;2024-03-07T20:27:22;98589.91;;;21.78;54.15
56414;BME280;42318;48.452;19.526;2024-03-07T20:30:23;98583.34;;;21.74;53.63
56414;BME280;42318;48.452;19.526;2024-03-07T20:33:27;98580.59;;;21.74;53.84
56414;BME280;42318;48.452;19.526;2024-03-07T20:36:27;98589.38;;;21.81;53.54
56414;BME280;42318;48.452;19.526;2024-03-07T20:39:28;98586.38;;;21.82;53.56
56414;BME280;42318;48.452;19.526;2024-03-07T20:42:29;98587.72;;;21.80;53.52
56414;BME280;42318;48.452;19.526;2024-03-07T20:45:29;98591.00;;;21.82;53.84
56414;BME280;42318;48.452;19.526;2024-03-07T20:48:31;98586.38;;;21.82;53.47
56414;BME280;42318;48.452;19.526;2024-03-07T20:51:32;98592.66;;;21.83;53.41
56414;BME280;42318;48.452;19.526;2024-03-07T20:54:37;98590.75;;;21.83;53.21
56414;BME280;42318;48.452;19.526;2024-03-07T20:57:37;98591.00;;;21.82;53.49
56414;BME280;42318;48.452;19.526;2024-03-07T21:00:38;98584.44;;;21.78;53.21
56414;BME280;42318;48.452;19.526;2024-03-07T21:03:45;98576.25;;;21.78;53.40
56414;BME280;42318;48.452;19.526;2024-03-07T21:06:46;98583.91;;;21.81;53.19
56414;BME280;42318;48.452;19.526;2024-03-07T21:09:48;98583.66;;;21.82;53.38
56414;BME280;42318;48.452;19.526;2024-03-07T21:12:48;98583.38;;;21.84;53.12
56414;BME280;42318;48.452;19.526;2024-03-07T21:15:49;98588.84;;;21.84;53.43
56414;BME280;42318;48.452;19.526;2024-03-07T21:18:50;98596.19;;;21.83;53.16
56414;BME280;42318;48.452;19.526;2024-03-07T21:21:51;98595.94;;;21.85;53.14
56414;BME280;42318;48.452;19.526;2024-03-07T21:24:51;98583.66;;;21.82;53.64
56414;BME280;42318;48.452;19.526;2024-03-07T21:27:52;98584.19;;;21.84;53.42
56414;BME280;42318;48.452;19.526;2024-03-07T21:30:52;98584.19;;;21.84;53.42
56414;BME280;42318;48.452;19.526;2024-03-07T21:33:55;98582.28;;;21.85;53.62
56414;BME280;42318;48.452;19.526;2024-03-07T21:36:56;98578.47;;;21.86;53.41
56414;BME280;42318;48.452;19.526;2024-03-07T21:39:56;98585.56;;;21.87;53.46
56414;BME280;42318;48.452;19.526;2024-03-07T21:42:57;98576.03;;;21.84;53.18
56414;BME280;42318;48.452;19.526;2024-03-07T21:45:58;98582.84;;;21.87;53.47
56414;BME280;42318;48.452;19.526;2024-03-07T21:48:58;98588.31;;;21.87;53.60
56414;BME280;42318;48.452;19.526;2024-03-07T21:52:01;98568.63;;;21.75;53.41
56414;BME280;42318;48.452;19.526;2024-03-07T21:55:02;98589.41;;;21.86;53.70
56414;BME280;42318;48.452;19.526;2024-03-07T21:58:04;98589.13;;;21.87;53.54
56414;BME280;42318;48.452;19.526;2024-03-07T22:01:08;98582.03;;;21.86;53.44
56414;BME280;42318;48.452;19.526;2024-03-07T22:04:12;98583.66;;;21.87;53.39
56414;BME280;42318;48.452;19.526;2024-03-07T22:07:13;98589.13;;;21.87;53.38
56414;BME280;42318;48.452;19.526;2024-03-07T22:10:15;98584.50;;;21.88;53.40
56414;BME280;42318;48.452;19.526;2024-03-07T22:13:16;98584.50;;;21.88;53.78
56414;BME280;42318;48.452;19.526;2024-03-07T22:16:17;98587.50;;;21.86;53.37
56414;BME280;42318;48.452;19.526;2024-03-07T22:19:18;98573.81;;;21.81;53.99
56414;BME280;42318;48.452;19.526;2024-03-07T22:22:18;98584.50;;;21.88;53.73
56414;BME280;42318;48.452;19.526;2024-03-07T22:25:19;98587.22;;;21.88;53.82
56414;BME280;42318;48.452;19.526;2024-03-07T22:28:23;98579.03;;;21.88;53.65
56414;BME280;42318;48.452;19.526;2024-03-07T22:31:24;98579.59;;;21.90;53.58
56414;BME280;42318;48.452;19.526;2024-03-07T22:34:24;98564.28;;;21.79;54.16
56414;BME280;42318;48.452;19.526;2024-03-07T22:37:25;98588.59;;;21.90;53.84
56414;BME280;42318;48.452;19.526;2024-03-07T22:40:26;98574.41;;;21.88;53.71
56414;BME280;42318;48.452;19.526;2024-03-07T22:43:27;98578.75;;;21.84;53.77
56414;BME280;42318;48.452;19.526;2024-03-07T22:46:28;98574.13;;;21.90;53.91
56414;BME280;42318;48.452;19.526;2024-03-07T22:49:28;98569.75;;;21.89;53.58
56414;BME280;42318;48.452;19.526;2024-03-07T22:52:29;98566.47;;;21.87;53.87
56414;BME280;42318;48.452;19.526;2024-03-07T22:55:30;98567.84;;;21.89;53.92
56414;BME280;42318;48.452;19.526;2024-03-07T22:58:30;98570.84;;;21.88;53.86
56414;BME280;42318;48.452;19.526;2024-03-07T23:01:32;98572.22;;;21.90;53.86
56414;BME280;42318;48.452;19.526;2024-03-07T23:04:33;98575.78;;;21.91;53.73
56414;BME280;42318;48.452;19.526;2024-03-07T23:07:33;98579.59;;;21.90;53.68
56414;BME280;42318;48.452;19.526;2024-03-07T23:10:34;98576.88;;;21.90;53.54
56414;BME280;42318;48.452;19.526;2024-03-07T23:13:34;98569.47;;;21.85;53.97
56414;BME280;42318;48.452;19.526;2024-03-07T23:16:35;98579.31;;;21.91;53.71
56414;BME280;42318;48.452;19.526;2024-03-07T23:19:36;98576.88;;;21.90;53.45
56414;BME280;42318;48.452;19.526;2024-03-07T23:22:37;98581.22;;;21.91;53.91
56414;BME280;42318;48.452;19.526;2024-03-07T23:25:38;98570.59;;;21.89;53.96
56414;BME280;42318;48.452;19.526;2024-03-07T23:28:38;98578.25;;;21.92;53.86
56414;BME280;42318;48.452;19.526;2024-03-07T23:31:39;98573.03;;;21.91;53.55
56414;BME280;42318;48.452;19.526;2024-03-07T23:34:42;98582.06;;;21.91;53.61
56414;BME280;42318;48.452;19.526;2024-03-07T23:37:43;98579.03;;;21.88;53.86
56414;BME280;42318;48.452;19.526;2024-03-07T23:40:44;98574.41;;;21.88;53.60
56414;BME280;42318;48.452;19.526;2024-03-07T23:43:45;98575.50;;;21.92;54.01
56414;BME280;42318;48.452;19.526;2024-03-07T23:46:47;98580.16;;;21.92;53.83
56414;BME280;42318;48.452;19.526;2024-03-07T23:49:47;98586.16;;;21.94;54.04
56414;BME280;42318;48.452;19.526;2024-03-07T23:52:48;98581.22;;;21.91;53.71
56414;BME280;42318;48.452;19.526;2024-03-07T23:55:48;98574.69;;;21.92;53.83
56414;BME280;42318;48.452;19.526;2024-03-07T23:58:52;98576.31;;;21.93;53.68
